• Join FlightAware (Why Join?)
  • Login
  • US Flag 
01:22AM EDT


 

Airport Tracker/Info


-or-


 

Live Flight TrackerFlight Track Log ✈ FDX1425 ✈ 18-Jun-2013 ✈ KMEM - KIAH

Flight Track Log - Related Links

Times and Time Zones

All times are in EDT time to prevent confusion due to time zone crossing. See the FDX1425 flight status page for this flight to view local times or setup timezone preferences in your user account.

Time Position Orientation Groundspeed Altitude Reporting Facility
EDT Latitude Longitude Course Direction KTS MPH feet Rate Location/Type
05:12AM 35.0167 -89.9833 180° South 173 199 900  Level KMEM
05:12AM 34.9833 -89.9833 180° South 189 217 1,900 2,340 Climbing KMEM
05:14AM 34.9059 -90.0941 219° Southwest  Level FlightAware Approximate
05:16AM 34.7819 -90.1497 213° Southwest 362 417 10,300  Level Memphis Center
05:17AM 34.7028 -90.2358 222° Southwest 386 444 12,200 2,100 Climbing Memphis Center
05:18AM 34.6192 -90.3319 223° Southwest 404 465 14,500 2,280 Climbing Memphis Center
05:19AM 34.5378 -90.4278 224° Southwest 409 471 16,800 2,100 Climbing Memphis Center
05:20AM 34.4461 -90.5183 219° Southwest 427 491 18,700 1,860 Climbing Memphis Center
05:21AM 34.3058 -90.6288 213° Southwest  Level FlightAware Approximate
05:22AM 34.2475 -90.7014 217° Southwest 451 519 22,500  Level Memphis Center
05:23AM 34.1386 -90.8064 219° Southwest 451 519 24,000 1,380 Climbing Memphis Center
05:24AM 34.0358 -90.9036 218° Southwest 462 532 25,300 1,380 Climbing Memphis Center
05:25AM 33.9311 -91.0006 218° Southwest 474 545 26,800 1,260 Climbing Memphis Center
05:26AM 33.8242 -91.0947 216° Southwest 474 545 27,900 1,140 Climbing Memphis Center
05:27AM 33.7336 -91.2114 227° Southwest 479 551 29,100 1,440 Climbing Memphis Center
05:28AM 33.6492 -91.3356 231° Southwest 474 545 30,800 1,440 Climbing Memphis Center
05:30AM 33.5008 -91.5650 232° Southwest 464 534 33,400 1,560 Climbing Fort Worth Center
05:31AM 33.4186 -91.6800 229° Southwest 469 540 35,300 360 Climbing Fort Worth Center
05:37AM 32.7872 -92.1485 229° Southwest 486 559 36,000 60 Climbing FlightAware ADS-B
05:39AM 32.4726 -92.2890 201° Southwest 478 550 36,000  Level FlightAware ADS-B
05:44AM 31.9796 -92.7829 220° Southwest 484 557 36,000  Level FlightAware ADS-B
05:47AM 31.6333 -93.1761 224° Southwest 500 575 36,000  Level FlightAware ADS-B
05:49AM 31.5241 -93.2994 224° Southwest 494 568 36,000  Level FlightAware ADS-B
05:50AM 31.4361 -93.4014 224° Southwest 493 567 36,000 -1,200 Level Houston Center
05:55AM 30.8517 -94.0460 224° Southwest 494 568 28,200 -1,500 Descending FlightAware ADS-B
05:56AM 30.8023 -94.1002 223° Southwest 480 552 26,900 -2,580 Descending FlightAware ADS-B
05:56AM 30.7540 -94.1545 224° Southwest 466 536 25,600 -2,580 Descending FlightAware ADS-B
05:57AM 30.7073 -94.2058 223° Southwest 456 525 24,300 -2,640 Descending FlightAware ADS-B
05:57AM 30.6614 -94.2561 223° Southwest 450 518 23,000 -2,580 Descending FlightAware ADS-B
05:58AM 30.6157 -94.3064 223° Southwest 436 502 21,700 -2,520 Descending FlightAware ADS-B
05:58AM 30.5709 -94.3553 223° Southwest 424 488 20,400 -2,580 Descending FlightAware ADS-B
06:00AM 30.4430 -94.4946 223° Southwest 411 473 16,600 -2,520 Descending FlightAware ADS-B
06:01AM 30.3661 -94.5772 223° Southwest 395 455 14,300 -1,620 Descending FlightAware ADS-B
06:03AM 30.1838 -94.7759 223° Southwest 318 366 11,000 -1,260 Descending FlightAware ADS-B
06:04AM 30.1521 -94.8098 223° Southwest 303 349 10,500 -900 Descending FlightAware ADS-B
06:04AM 30.1217 -94.8420 222° Southwest 286 329 10,100 -1,320 Descending FlightAware ADS-B
06:05AM 30.0801 -94.8861 221° Southwest 281 323 8,900 -2,040 Descending FlightAware ADS-B
06:06AM 30.0275 -94.9413 223° Southwest 275 316 6,800 -2,340 Descending FlightAware ADS-B
06:06AM 30.0211 -94.9501 232° Southwest 272 313 6,500 -1,740 Descending FlightAware ADS-B
06:06AM 30.0174 -94.9576 243° Southwest 270 311 6,400 -1,980 Descending FlightAware ADS-B
06:07AM 30.0086 -94.9958 257° West 261 300 5,400 -1,740 Descending FlightAware ADS-B
06:07AM 30.0020 -95.0276 256° West 247 284 4,900 -1,260 Descending FlightAware ADS-B
06:07AM 29.9977 -95.0463 255° West 236 272 4,600 -1,500 Descending FlightAware ADS-B
06:08AM 29.9855 -95.1007 255° West 225 259 3,400 -1,380 Descending FlightAware ADS-B
06:08AM 29.9802 -95.1249 254° West 209 241 3,100 -840 Descending FlightAware ADS-B
06:09AM 29.9785 -95.1335 258° West 203 234 3,000 -840 Descending FlightAware ADS-B
06:09AM 29.9782 -95.1410 267° West 203 234 2,900 -1,260 Descending FlightAware ADS-B
06:09AM 29.9777 -95.1591 268° West 197 227 2,500 -1,380 Descending FlightAware ADS-B
06:09AM 29.9778 -95.1785 272° West 184 212 2,100 -1,080 Descending FlightAware ADS-B
06:09AM 29.9778 -95.1877 270° West 168 193 2,000 -900 Descending FlightAware ADS-B
06:10AM 29.9776 -95.2027 269° West 143 165 1,700 -900 Descending FlightAware ADS-B
06:10AM 29.9777 -95.2149 271° West 127 146 1,500 -660 Descending FlightAware ADS-B
06:10AM 29.9776 -95.2295 270° West 124 143 1,300 -540 Descending FlightAware ADS-B
06:11AM 29.9775 -95.2381 269° West 124 143 1,200 -720 Descending FlightAware ADS-B
06:11AM 29.9776 -95.2469 271° West 126 145 1,000 -840 Descending FlightAware ADS-B
06:11AM 29.9777 -95.2536 271° West 127 146 900 -720 Descending FlightAware ADS-B
06:11AM 29.9777 -95.2591 270° West 128 147 800 -540 Descending FlightAware ADS-B
06:11AM 29.9776 -95.2694 269° West 131 151 700 -720 Descending FlightAware ADS-B
06:12AM 29.9775 -95.2778 269° West 134 154 500 -720 Descending FlightAware ADS-B
06:12AM 29.9775 -95.2886 270° West 135 155 400 -720 Descending FlightAware ADS-B
06:12AM 29.9776 -95.2966 271° West 138 159 200 -1,140 Descending FlightAware ADS-B